sensor_id;sensor_type;location;lat;lon;timestamp;temperature;humidity
20446;DHT22;10382;49.140;9.234;2023-04-24T00:00:40;13.30;99.90
20446;DHT22;10382;49.140;9.234;2023-04-24T00:03:09;13.20;99.90
20446;DHT22;10382;49.140;9.234;2023-04-24T00:05:36;13.30;99.90
20446;DHT22;10382;49.140;9.234;2023-04-24T00:08:03;13.30;99.90
20446;DHT22;10382;49.140;9.234;2023-04-24T00:10:30;13.30;99.90
20446;DHT22;10382;49.140;9.234;2023-04-24T00:12:57;13.20;99.90
20446;DHT22;10382;49.140;9.234;2023-04-24T00:15:23;13.20;99.90
20446;DHT22;10382;49.140;9.234;2023-04-24T00:17:50;13.20;99.90
20446;DHT22;10382;49.140;9.234;2023-04-24T00:20:20;13.20;99.90
20446;DHT22;10382;49.140;9.234;2023-04-24T00:22:48;13.20;99.90
20446;DHT22;10382;49.140;9.234;2023-04-24T00:25:15;13.30;99.90
20446;DHT22;10382;49.140;9.234;2023-04-24T00:27:41;13.30;99.90
20446;DHT22;10382;49.140;9.234;2023-04-24T00:30:09;13.20;99.90
20446;DHT22;10382;49.140;9.234;2023-04-24T00:32:36;13.20;99.90
20446;DHT22;10382;49.140;9.234;2023-04-24T00:35:03;13.10;99.90
20446;DHT22;10382;49.140;9.234;2023-04-24T00:37:32;13.20;99.90
20446;DHT22;10382;49.140;9.234;2023-04-24T00:39:59;13.10;99.90
20446;DHT22;10382;49.140;9.234;2023-04-24T00:42:26;13.20;99.90
20446;DHT22;10382;49.140;9.234;2023-04-24T00:44:53;13.20;99.90
20446;DHT22;10382;49.140;9.234;2023-04-24T00:47:20;13.10;99.90
20446;DHT22;10382;49.140;9.234;2023-04-24T00:49:47;13.10;99.90
20446;DHT22;10382;49.140;9.234;2023-04-24T00:52:14;13.10;99.90
20446;DHT22;10382;49.140;9.234;2023-04-24T00:54:44;13.10;99.90
20446;DHT22;10382;49.140;9.234;2023-04-24T00:57:13;13.10;99.90
20446;DHT22;10382;49.140;9.234;2023-04-24T00:59:41;13.00;99.90
20446;DHT22;10382;49.140;9.234;2023-04-24T01:02:08;13.00;99.90
20446;DHT22;10382;49.140;9.234;2023-04-24T01:04:36;13.00;99.90
20446;DHT22;10382;49.140;9.234;2023-04-24T01:07:03;13.10;99.90
20446;DHT22;10382;49.140;9.234;2023-04-24T01:09:35;13.10;99.90
20446;DHT22;10382;49.140;9.234;2023-04-24T01:12:04;13.20;99.90
20446;DHT22;10382;49.140;9.234;2023-04-24T01:14:31;13.20;99.90
20446;DHT22;10382;49.140;9.234;2023-04-24T01:16:58;13.30;99.90
20446;DHT22;10382;49.140;9.234;2023-04-24T01:19:25;13.30;99.90
20446;DHT22;10382;49.140;9.234;2023-04-24T01:21:54;13.40;99.90
20446;DHT22;10382;49.140;9.234;2023-04-24T01:24:25;13.40;99.90
20446;DHT22;10382;49.140;9.234;2023-04-24T01:26:52;13.40;99.90
20446;DHT22;10382;49.140;9.234;2023-04-24T01:29:19;13.50;99.90
20446;DHT22;10382;49.140;9.234;2023-04-24T01:31:46;13.50;99.90
20446;DHT22;10382;49.140;9.234;2023-04-24T01:34:13;13.50;99.90
20446;DHT22;10382;49.140;9.234;2023-04-24T01:36:41;13.60;99.90
20446;DHT22;10382;49.140;9.234;2023-04-24T01:39:09;13.40;99.90
20446;DHT22;10382;49.140;9.234;2023-04-24T01:41:37;13.50;99.90
20446;DHT22;10382;49.140;9.234;2023-04-24T01:44:04;13.30;99.90
20446;DHT22;10382;49.140;9.234;2023-04-24T01:46:31;13.30;99.90
20446;DHT22;10382;49.140;9.234;2023-04-24T01:49:00;13.20;99.90
20446;DHT22;10382;49.140;9.234;2023-04-24T01:51:27;13.20;99.90
20446;DHT22;10382;49.140;9.234;2023-04-24T01:53:54;13.20;99.90
20446;DHT22;10382;49.140;9.234;2023-04-24T01:56:22;13.20;99.90
20446;DHT22;10382;49.140;9.234;2023-04-24T01:58:50;13.30;99.90
20446;DHT22;10382;49.140;9.234;2023-04-24T02:01:19;13.30;99.90
20446;DHT22;10382;49.140;9.234;2023-04-24T02:03:46;13.30;99.90
20446;DHT22;10382;49.140;9.234;2023-04-24T02:06:13;13.40;99.90
20446;DHT22;10382;49.140;9.234;2023-04-24T02:08:40;13.40;99.90
20446;DHT22;10382;49.140;9.234;2023-04-24T02:11:08;13.30;99.90
20446;DHT22;10382;49.140;9.234;2023-04-24T02:13:35;13.20;99.90
20446;DHT22;10382;49.140;9.234;2023-04-24T02:16:04;13.20;99.90
20446;DHT22;10382;49.140;9.234;2023-04-24T02:18:31;13.20;99.90
20446;DHT22;10382;49.140;9.234;2023-04-24T02:20:57;13.20;99.90
20446;DHT22;10382;49.140;9.234;2023-04-24T02:23:24;13.10;99.90
20446;DHT22;10382;49.140;9.234;2023-04-24T02:25:52;13.10;99.90
20446;DHT22;10382;49.140;9.234;2023-04-24T02:28:19;13.20;99.90
20446;DHT22;10382;49.140;9.234;2023-04-24T02:30:46;13.10;99.90
20446;DHT22;10382;49.140;9.234;2023-04-24T02:33:14;13.10;99.90
20446;DHT22;10382;49.140;9.234;2023-04-24T02:35:41;13.10;99.90
20446;DHT22;10382;49.140;9.234;2023-04-24T02:38:08;13.10;99.90
20446;DHT22;10382;49.140;9.234;2023-04-24T02:40:35;13.10;99.90
20446;DHT22;10382;49.140;9.234;2023-04-24T02:43:02;13.10;99.90
20446;DHT22;10382;49.140;9.234;2023-04-24T02:45:29;13.20;99.90
20446;DHT22;10382;49.140;9.234;2023-04-24T02:47:55;13.20;99.90
20446;DHT22;10382;49.140;9.234;2023-04-24T02:50:24;13.40;99.90
20446;DHT22;10382;49.140;9.234;2023-04-24T02:52:51;13.20;99.90
20446;DHT22;10382;49.140;9.234;2023-04-24T02:55:17;13.20;99.90
20446;DHT22;10382;49.140;9.234;2023-04-24T02:57:44;13.20;99.90
20446;DHT22;10382;49.140;9.234;2023-04-24T03:00:12;13.20;99.90
20446;DHT22;10382;49.140;9.234;2023-04-24T03:02:39;13.20;99.90
20446;DHT22;10382;49.140;9.234;2023-04-24T03:05:07;13.20;99.90
20446;DHT22;10382;49.140;9.234;2023-04-24T03:07:35;13.20;99.90
20446;DHT22;10382;49.140;9.234;2023-04-24T03:10:03;13.20;99.90
20446;DHT22;10382;49.140;9.234;2023-04-24T03:12:30;13.20;99.90
20446;DHT22;10382;49.140;9.234;2023-04-24T03:14:57;13.20;99.90
20446;DHT22;10382;49.140;9.234;2023-04-24T03:17:24;13.20;99.90
20446;DHT22;10382;49.140;9.234;2023-04-24T03:19:50;13.10;99.90
20446;DHT22;10382;49.140;9.234;2023-04-24T03:22:17;13.10;99.90
20446;DHT22;10382;49.140;9.234;2023-04-24T03:24:46;13.10;99.90
20446;DHT22;10382;49.140;9.234;2023-04-24T03:27:12;13.10;99.90
20446;DHT22;10382;49.140;9.234;2023-04-24T03:29:39;13.00;99.90
20446;DHT22;10382;49.140;9.234;2023-04-24T03:32:06;13.10;99.90
20446;DHT22;10382;49.140;9.234;2023-04-24T03:34:33;13.10;99.90
20446;DHT22;10382;49.140;9.234;2023-04-24T03:37:00;13.10;99.90
20446;DHT22;10382;49.140;9.234;2023-04-24T03:39:27;13.00;99.90
20446;DHT22;10382;49.140;9.234;2023-04-24T03:41:55;13.00;99.90
20446;DHT22;10382;49.140;9.234;2023-04-24T03:44:22;12.90;99.90
20446;DHT22;10382;49.140;9.234;2023-04-24T03:46:49;12.90;99.90
20446;DHT22;10382;49.140;9.234;2023-04-24T03:49:16;12.90;99.90
20446;DHT22;10382;49.140;9.234;2023-04-24T03:51:42;12.90;99.90
20446;DHT22;10382;49.140;9.234;2023-04-24T03:54:09;12.90;99.90
20446;DHT22;10382;49.140;9.234;2023-04-24T03:56:36;12.80;99.90
20446;DHT22;10382;49.140;9.234;2023-04-24T03:59:04;12.90;99.90
20446;DHT22;10382;49.140;9.234;2023-04-24T04:01:31;12.90;99.90
20446;DHT22;10382;49.140;9.234;2023-04-24T04:04:02;12.80;99.90
20446;DHT22;10382;49.140;9.234;2023-04-24T04:06:29;12.70;99.90
20446;DHT22;10382;49.140;9.234;2023-04-24T04:08:57;12.60;99.90
20446;DHT22;10382;49.140;9.234;2023-04-24T04:11:24;12.70;99.90
20446;DHT22;10382;49.140;9.234;2023-04-24T04:13:51;12.60;99.90
20446;DHT22;10382;49.140;9.234;2023-04-24T04:16:19;12.50;99.90
20446;DHT22;10382;49.140;9.234;2023-04-24T04:18:46;12.40;99.90
20446;DHT22;10382;49.140;9.234;2023-04-24T04:21:13;12.40;99.90
20446;DHT22;10382;49.140;9.234;2023-04-24T04:23:40;12.30;99.90
20446;DHT22;10382;49.140;9.234;2023-04-24T04:26:07;12.20;99.90
20446;DHT22;10382;49.140;9.234;2023-04-24T04:28:34;12.10;99.90
20446;DHT22;10382;49.140;9.234;2023-04-24T04:31:01;12.10;99.90
20446;DHT22;10382;49.140;9.234;2023-04-24T04:33:29;12.10;99.90
20446;DHT22;10382;49.140;9.234;2023-04-24T04:35:56;12.00;99.90
20446;DHT22;10382;49.140;9.234;2023-04-24T04:38:23;11.80;99.90
20446;DHT22;10382;49.140;9.234;2023-04-24T04:40:52;11.60;99.90
20446;DHT22;10382;49.140;9.234;2023-04-24T04:43:19;11.60;99.90
20446;DHT22;10382;49.140;9.234;2023-04-24T04:45:46;11.60;99.90
20446;DHT22;10382;49.140;9.234;2023-04-24T04:48:13;11.70;99.90
20446;DHT22;10382;49.140;9.234;2023-04-24T04:50:44;11.80;99.90
20446;DHT22;10382;49.140;9.234;2023-04-24T04:53:11;11.90;99.90
20446;DHT22;10382;49.140;9.234;2023-04-24T04:55:38;12.00;99.90
20446;DHT22;10382;49.140;9.234;2023-04-24T04:58:05;12.10;99.90
20446;DHT22;10382;49.140;9.234;2023-04-24T05:00:32;12.10;99.90
20446;DHT22;10382;49.140;9.234;2023-04-24T05:03:01;12.20;99.90
20446;DHT22;10382;49.140;9.234;2023-04-24T05:05:28;12.20;99.90
20446;DHT22;10382;49.140;9.234;2023-04-24T05:07:56;12.30;99.90
20446;DHT22;10382;49.140;9.234;2023-04-24T05:10:23;12.40;99.90
20446;DHT22;10382;49.140;9.234;2023-04-24T05:12:50;12.40;99.90
20446;DHT22;10382;49.140;9.234;2023-04-24T05:15:17;12.50;99.90
20446;DHT22;10382;49.140;9.234;2023-04-24T05:17:44;12.40;99.90
20446;DHT22;10382;49.140;9.234;2023-04-24T05:20:11;12.40;99.90
20446;DHT22;10382;49.140;9.234;2023-04-24T05:22:38;12.40;99.90
20446;DHT22;10382;49.140;9.234;2023-04-24T05:25:07;12.30;99.90
20446;DHT22;10382;49.140;9.234;2023-04-24T05:27:34;12.20;99.90
20446;DHT22;10382;49.140;9.234;2023-04-24T05:30:01;12.20;99.90
20446;DHT22;10382;49.140;9.234;2023-04-24T05:32:27;12.10;99.90
20446;DHT22;10382;49.140;9.234;2023-04-24T05:34:54;12.00;99.90
20446;DHT22;10382;49.140;9.234;2023-04-24T05:37:21;11.80;99.90
20446;DHT22;10382;49.140;9.234;2023-04-24T05:39:48;11.70;99.90
20446;DHT22;10382;49.140;9.234;2023-04-24T05:42:16;11.70;99.90
20446;DHT22;10382;49.140;9.234;2023-04-24T05:44:43;11.70;99.90
20446;DHT22;10382;49.140;9.234;2023-04-24T05:47:10;11.70;99.90
20446;DHT22;10382;49.140;9.234;2023-04-24T05:49:37;11.70;99.90
20446;DHT22;10382;49.140;9.234;2023-04-24T05:52:04;11.60;99.90
20446;DHT22;10382;49.140;9.234;2023-04-24T05:54:32;11.50;99.90
20446;DHT22;10382;49.140;9.234;2023-04-24T05:56:59;11.60;99.90
20446;DHT22;10382;49.140;9.234;2023-04-24T05:59:31;11.70;99.90
20446;DHT22;10382;49.140;9.234;2023-04-24T06:01:57;11.90;99.90
20446;DHT22;10382;49.140;9.234;2023-04-24T06:04:24;12.10;99.90
20446;DHT22;10382;49.140;9.234;2023-04-24T06:06:51;12.40;99.90
20446;DHT22;10382;49.140;9.234;2023-04-24T06:09:21;12.70;99.90
20446;DHT22;10382;49.140;9.234;2023-04-24T06:11:49;12.90;99.90
20446;DHT22;10382;49.140;9.234;2023-04-24T06:14:18;13.10;99.90
20446;DHT22;10382;49.140;9.234;2023-04-24T06:16:46;13.30;99.90
20446;DHT22;10382;49.140;9.234;2023-04-24T06:19:13;13.50;99.90
20446;DHT22;10382;49.140;9.234;2023-04-24T06:21:40;13.50;99.90
20446;DHT22;10382;49.140;9.234;2023-04-24T06:24:07;13.30;99.90
20446;DHT22;10382;49.140;9.234;2023-04-24T06:26:33;12.90;99.90
20446;DHT22;10382;49.140;9.234;2023-04-24T06:29:00;12.80;99.90
20446;DHT22;10382;49.140;9.234;2023-04-24T06:31:27;12.70;99.90
20446;DHT22;10382;49.140;9.234;2023-04-24T06:33:55;12.60;99.90
20446;DHT22;10382;49.140;9.234;2023-04-24T06:36:22;12.40;99.90
20446;DHT22;10382;49.140;9.234;2023-04-24T06:38:49;12.40;99.90
20446;DHT22;10382;49.140;9.234;2023-04-24T06:41:16;12.40;99.90
20446;DHT22;10382;49.140;9.234;2023-04-24T06:43:43;12.70;99.90
20446;DHT22;10382;49.140;9.234;2023-04-24T06:46:10;13.00;99.90
20446;DHT22;10382;49.140;9.234;2023-04-24T06:48:37;13.20;99.90
20446;DHT22;10382;49.140;9.234;2023-04-24T06:51:05;13.30;99.90
20446;DHT22;10382;49.140;9.234;2023-04-24T06:53:32;13.50;99.90
20446;DHT22;10382;49.140;9.234;2023-04-24T06:55:59;13.50;99.90
20446;DHT22;10382;49.140;9.234;2023-04-24T06:58:26;13.40;99.90
20446;DHT22;10382;49.140;9.234;2023-04-24T07:00:53;13.60;99.90
20446;DHT22;10382;49.140;9.234;2023-04-24T07:03:20;13.80;99.90
20446;DHT22;10382;49.140;9.234;2023-04-24T07:05:47;13.70;99.90
20446;DHT22;10382;49.140;9.234;2023-04-24T07:08:16;13.60;99.90
20446;DHT22;10382;49.140;9.234;2023-04-24T07:10:43;13.70;99.90
20446;DHT22;10382;49.140;9.234;2023-04-24T07:13:10;13.80;99.90
20446;DHT22;10382;49.140;9.234;2023-04-24T07:15:37;13.80;99.90
20446;DHT22;10382;49.140;9.234;2023-04-24T07:18:05;13.70;99.90
20446;DHT22;10382;49.140;9.234;2023-04-24T07:20:32;13.90;99.90
20446;DHT22;10382;49.140;9.234;2023-04-24T07:23:00;14.00;99.90
20446;DHT22;10382;49.140;9.234;2023-04-24T07:25:28;13.90;99.90
20446;DHT22;10382;49.140;9.234;2023-04-24T07:27:55;13.90;99.90
20446;DHT22;10382;49.140;9.234;2023-04-24T07:30:22;14.00;99.90
20446;DHT22;10382;49.140;9.234;2023-04-24T07:32:48;14.00;99.90
20446;DHT22;10382;49.140;9.234;2023-04-24T07:35:15;13.90;99.90
20446;DHT22;10382;49.140;9.234;2023-04-24T07:37:42;14.00;99.90
20446;DHT22;10382;49.140;9.234;2023-04-24T07:40:11;14.30;99.90
20446;DHT22;10382;49.140;9.234;2023-04-24T07:42:40;14.30;99.90
20446;DHT22;10382;49.140;9.234;2023-04-24T07:45:07;14.40;99.90
20446;DHT22;10382;49.140;9.234;2023-04-24T07:47:34;14.10;99.90
20446;DHT22;10382;49.140;9.234;2023-04-24T07:50:03;13.80;99.90
20446;DHT22;10382;49.140;9.234;2023-04-24T07:52:30;13.90;99.90
20446;DHT22;10382;49.140;9.234;2023-04-24T07:54:56;13.80;99.90
20446;DHT22;10382;49.140;9.234;2023-04-24T07:57:25;13.60;99.90
20446;DHT22;10382;49.140;9.234;2023-04-24T07:59:54;13.40;99.90
20446;DHT22;10382;49.140;9.234;2023-04-24T08:02:21;13.60;99.90
20446;DHT22;10382;49.140;9.234;2023-04-24T08:04:52;13.80;99.90
20446;DHT22;10382;49.140;9.234;2023-04-24T08:07:20;13.80;99.90
20446;DHT22;10382;49.140;9.234;2023-04-24T08:09:46;13.80;99.90
20446;DHT22;10382;49.140;9.234;2023-04-24T08:12:13;13.70;99.90
20446;DHT22;10382;49.140;9.234;2023-04-24T08:14:40;13.50;99.90
20446;DHT22;10382;49.140;9.234;2023-04-24T08:17:08;13.50;99.90
20446;DHT22;10382;49.140;9.234;2023-04-24T08:19:35;13.60;99.90
20446;DHT22;10382;49.140;9.234;2023-04-24T08:22:02;13.70;99.90
20446;DHT22;10382;49.140;9.234;2023-04-24T08:24:29;13.80;99.90
20446;DHT22;10382;49.140;9.234;2023-04-24T08:26:56;13.70;99.90
20446;DHT22;10382;49.140;9.234;2023-04-24T08:29:23;13.60;99.90
20446;DHT22;10382;49.140;9.234;2023-04-24T08:31:52;13.70;99.90
20446;DHT22;10382;49.140;9.234;2023-04-24T08:34:21;13.50;99.90
20446;DHT22;10382;49.140;9.234;2023-04-24T08:36:48;13.20;99.90
20446;DHT22;10382;49.140;9.234;2023-04-24T08:39:15;13.10;99.90
20446;DHT22;10382;49.140;9.234;2023-04-24T08:41:44;13.10;99.90
20446;DHT22;10382;49.140;9.234;2023-04-24T08:44:13;13.20;99.90
20446;DHT22;10382;49.140;9.234;2023-04-24T08:46:42;13.40;99.90
20446;DHT22;10382;49.140;9.234;2023-04-24T08:49:11;13.60;99.90
20446;DHT22;10382;49.140;9.234;2023-04-24T08:51:40;13.60;99.90
20446;DHT22;10382;49.140;9.234;2023-04-24T08:54:07;13.40;99.90
20446;DHT22;10382;49.140;9.234;2023-04-24T08:56:37;12.90;99.90
20446;DHT22;10382;49.140;9.234;2023-04-24T08:59:05;12.30;99.90
20446;DHT22;10382;49.140;9.234;2023-04-24T09:01:33;12.20;99.90
20446;DHT22;10382;49.140;9.234;2023-04-24T09:04:02;12.10;99.90
20446;DHT22;10382;49.140;9.234;2023-04-24T09:06:30;11.90;99.90
20446;DHT22;10382;49.140;9.234;2023-04-24T09:09:01;12.00;99.90
20446;DHT22;10382;49.140;9.234;2023-04-24T09:11:30;12.20;99.90
20446;DHT22;10382;49.140;9.234;2023-04-24T09:13:57;12.40;99.90
20446;DHT22;10382;49.140;9.234;2023-04-24T09:16:25;12.80;99.90
20446;DHT22;10382;49.140;9.234;2023-04-24T09:18:53;13.00;99.90
20446;DHT22;10382;49.140;9.234;2023-04-24T09:21:21;13.00;99.90
20446;DHT22;10382;49.140;9.234;2023-04-24T09:23:58;13.20;99.90
20446;DHT22;10382;49.140;9.234;2023-04-24T09:26:29;13.60;99.90
20446;DHT22;10382;49.140;9.234;2023-04-24T09:28:59;14.10;99.90
20446;DHT22;10382;49.140;9.234;2023-04-24T09:31:27;14.50;99.90
20446;DHT22;10382;49.140;9.234;2023-04-24T09:33:56;14.50;99.90
20446;DHT22;10382;49.140;9.234;2023-04-24T09:36:30;13.90;99.90
20446;DHT22;10382;49.140;9.234;2023-04-24T09:38:59;13.70;99.90
20446;DHT22;10382;49.140;9.234;2023-04-24T09:41:28;13.50;99.90
20446;DHT22;10382;49.140;9.234;2023-04-24T09:43:56;13.50;99.90
20446;DHT22;10382;49.140;9.234;2023-04-24T09:46:30;13.60;99.90
20446;DHT22;10382;49.140;9.234;2023-04-24T09:48:57;13.80;99.90
20446;DHT22;10382;49.140;9.234;2023-04-24T09:51:34;14.10;99.90
20446;DHT22;10382;49.140;9.234;2023-04-24T09:54:02;14.30;99.90
20446;DHT22;10382;49.140;9.234;2023-04-24T09:56:32;14.30;99.90
20446;DHT22;10382;49.140;9.234;2023-04-24T09:59:04;14.50;99.90
20446;DHT22;10382;49.140;9.234;2023-04-24T10:01:32;14.60;99.90
20446;DHT22;10382;49.140;9.234;2023-04-24T10:03:59;14.70;99.90
20446;DHT22;10382;49.140;9.234;2023-04-24T10:06:32;14.90;99.90
20446;DHT22;10382;49.140;9.234;2023-04-24T10:08:59;15.00;99.90
20446;DHT22;10382;49.140;9.234;2023-04-24T10:11:27;14.80;99.90
20446;DHT22;10382;49.140;9.234;2023-04-24T10:13:55;14.80;99.90
20446;DHT22;10382;49.140;9.234;2023-04-24T10:16:23;14.60;99.90
20446;DHT22;10382;49.140;9.234;2023-04-24T10:18:50;14.20;99.90
20446;DHT22;10382;49.140;9.234;2023-04-24T10:21:17;14.00;99.90
20446;DHT22;10382;49.140;9.234;2023-04-24T10:23:44;13.70;99.90
20446;DHT22;10382;49.140;9.234;2023-04-24T10:26:13;13.60;99.90
20446;DHT22;10382;49.140;9.234;2023-04-24T10:28:44;13.40;99.90
20446;DHT22;10382;49.140;9.234;2023-04-24T10:31:14;13.40;99.90
20446;DHT22;10382;49.140;9.234;2023-04-24T10:33:43;13.30;99.90
20446;DHT22;10382;49.140;9.234;2023-04-24T10:36:11;13.30;99.90
20446;DHT22;10382;49.140;9.234;2023-04-24T10:38:41;13.20;99.90
20446;DHT22;10382;49.140;9.234;2023-04-24T10:41:09;13.20;99.90
20446;DHT22;10382;49.140;9.234;2023-04-24T10:43:41;13.20;99.90
20446;DHT22;10382;49.140;9.234;2023-04-24T10:46:09;13.30;99.90
20446;DHT22;10382;49.140;9.234;2023-04-24T10:48:43;13.40;99.90
20446;DHT22;10382;49.140;9.234;2023-04-24T10:51:14;13.60;99.90
20446;DHT22;10382;49.140;9.234;2023-04-24T10:53:41;13.90;99.90
20446;DHT22;10382;49.140;9.234;2023-04-24T10:56:09;14.40;99.90
20446;DHT22;10382;49.140;9.234;2023-04-24T10:58:40;15.10;99.90
20446;DHT22;10382;49.140;9.234;2023-04-24T11:01:24;15.60;99.90
20446;DHT22;10382;49.140;9.234;2023-04-24T11:03:56;15.40;99.90
20446;DHT22;10382;49.140;9.234;2023-04-24T11:06:31;15.40;99.90
20446;DHT22;10382;49.140;9.234;2023-04-24T11:09:03;15.60;99.90
20446;DHT22;10382;49.140;9.234;2023-04-24T11:11:32;15.50;99.90
20446;DHT22;10382;49.140;9.234;2023-04-24T11:14:04;15.10;99.90
20446;DHT22;10382;49.140;9.234;2023-04-24T11:16:34;14.70;99.90
20446;DHT22;10382;49.140;9.234;2023-04-24T11:19:04;14.20;99.90
20446;DHT22;10382;49.140;9.234;2023-04-24T11:21:38;13.90;99.90
20446;DHT22;10382;49.140;9.234;2023-04-24T11:24:26;13.70;99.90
20446;DHT22;10382;49.140;9.234;2023-04-24T11:26:55;13.70;99.90
20446;DHT22;10382;49.140;9.234;2023-04-24T11:29:38;13.70;99.90
20446;DHT22;10382;49.140;9.234;2023-04-24T11:32:24;13.60;99.90
20446;DHT22;10382;49.140;9.234;2023-04-24T11:34:54;13.50;99.90
20446;DHT22;10382;49.140;9.234;2023-04-24T11:37:22;13.50;99.90
20446;DHT22;10382;49.140;9.234;2023-04-24T11:39:52;13.30;99.90
20446;DHT22;10382;49.140;9.234;2023-04-24T11:42:20;13.20;99.90
20446;DHT22;10382;49.140;9.234;2023-04-24T11:44:48;13.20;99.90
20446;DHT22;10382;49.140;9.234;2023-04-24T11:47:15;13.20;99.90
20446;DHT22;10382;49.140;9.234;2023-04-24T11:49:42;13.30;99.90
20446;DHT22;10382;49.140;9.234;2023-04-24T11:52:10;13.50;99.90
20446;DHT22;10382;49.140;9.234;2023-04-24T11:54:38;14.00;99.90
20446;DHT22;10382;49.140;9.234;2023-04-24T11:57:13;14.40;99.90
20446;DHT22;10382;49.140;9.234;2023-04-24T11:59:40;14.70;99.90
20446;DHT22;10382;49.140;9.234;2023-04-24T12:02:07;14.90;99.90
20446;DHT22;10382;49.140;9.234;2023-04-24T12:04:40;15.20;99.90
20446;DHT22;10382;49.140;9.234;2023-04-24T12:07:08;15.50;99.90
20446;DHT22;10382;49.140;9.234;2023-04-24T12:09:44;15.90;99.90
20446;DHT22;10382;49.140;9.234;2023-04-24T12:12:12;16.00;99.90
20446;DHT22;10382;49.140;9.234;2023-04-24T12:14:44;15.80;99.90
20446;DHT22;10382;49.140;9.234;2023-04-24T12:17:11;15.20;99.90
20446;DHT22;10382;49.140;9.234;2023-04-24T12:19:45;14.70;99.90
20446;DHT22;10382;49.140;9.234;2023-04-24T12:22:12;14.30;99.90
20446;DHT22;10382;49.140;9.234;2023-04-24T12:24:56;14.20;99.90
20446;DHT22;10382;49.140;9.234;2023-04-24T12:27:30;14.30;99.90
20446;DHT22;10382;49.140;9.234;2023-04-24T12:29:58;14.30;99.90
20446;DHT22;10382;49.140;9.234;2023-04-24T12:32:26;14.20;99.90
20446;DHT22;10382;49.140;9.234;2023-04-24T12:34:54;14.30;99.90
20446;DHT22;10382;49.140;9.234;2023-04-24T12:37:23;14.30;99.90
20446;DHT22;10382;49.140;9.234;2023-04-24T12:40:02;14.30;99.90
20446;DHT22;10382;49.140;9.234;2023-04-24T12:42:29;14.30;99.90
20446;DHT22;10382;49.140;9.234;2023-04-24T12:44:57;14.50;99.90
20446;DHT22;10382;49.140;9.234;2023-04-24T12:47:26;14.70;99.90
20446;DHT22;10382;49.140;9.234;2023-04-24T12:49:53;15.00;99.90
20446;DHT22;10382;49.140;9.234;2023-04-24T12:52:21;15.00;99.90
20446;DHT22;10382;49.140;9.234;2023-04-24T12:54:49;14.80;99.90
20446;DHT22;10382;49.140;9.234;2023-04-24T12:57:18;14.70;99.90
20446;DHT22;10382;49.140;9.234;2023-04-24T12:59:45;14.80;99.90
20446;DHT22;10382;49.140;9.234;2023-04-24T13:02:12;15.10;99.90
20446;DHT22;10382;49.140;9.234;2023-04-24T13:04:39;15.10;99.90
20446;DHT22;10382;49.140;9.234;2023-04-24T13:07:06;15.20;99.90
20446;DHT22;10382;49.140;9.234;2023-04-24T13:09:34;15.30;99.90
20446;DHT22;10382;49.140;9.234;2023-04-24T13:12:02;15.20;99.90
20446;DHT22;10382;49.140;9.234;2023-04-24T13:14:33;15.10;99.90
20446;DHT22;10382;49.140;9.234;2023-04-24T13:17:01;15.00;99.90
20446;DHT22;10382;49.140;9.234;2023-04-24T13:19:29;14.90;99.90
20446;DHT22;10382;49.140;9.234;2023-04-24T13:21:57;15.20;99.90
20446;DHT22;10382;49.140;9.234;2023-04-24T13:24:25;15.40;99.90
20446;DHT22;10382;49.140;9.234;2023-04-24T13:26:53;15.50;99.90
20446;DHT22;10382;49.140;9.234;2023-04-24T13:29:20;15.40;99.90
20446;DHT22;10382;49.140;9.234;2023-04-24T13:31:50;15.50;99.90
20446;DHT22;10382;49.140;9.234;2023-04-24T13:34:17;15.50;99.90
20446;DHT22;10382;49.140;9.234;2023-04-24T13:36:45;15.80;99.90
20446;DHT22;10382;49.140;9.234;2023-04-24T13:39:12;16.10;99.90
20446;DHT22;10382;49.140;9.234;2023-04-24T13:41:39;15.60;99.90
20446;DHT22;10382;49.140;9.234;2023-04-24T13:44:06;15.00;99.90
20446;DHT22;10382;49.140;9.234;2023-04-24T13:46:33;14.70;99.90
20446;DHT22;10382;49.140;9.234;2023-04-24T13:49:02;14.50;99.90
20446;DHT22;10382;49.140;9.234;2023-04-24T13:51:30;14.40;99.90
20446;DHT22;10382;49.140;9.234;2023-04-24T13:53:57;14.40;99.90
20446;DHT22;10382;49.140;9.234;2023-04-24T13:56:25;14.50;99.90
20446;DHT22;10382;49.140;9.234;2023-04-24T13:58:52;14.60;99.90
20446;DHT22;10382;49.140;9.234;2023-04-24T14:01:20;14.60;99.90
20446;DHT22;10382;49.140;9.234;2023-04-24T14:03:49;14.50;99.90
20446;DHT22;10382;49.140;9.234;2023-04-24T14:06:18;14.60;99.90
20446;DHT22;10382;49.140;9.234;2023-04-24T14:08:45;14.60;99.90
20446;DHT22;10382;49.140;9.234;2023-04-24T14:11:12;14.60;99.90
20446;DHT22;10382;49.140;9.234;2023-04-24T14:13:41;14.60;99.90
20446;DHT22;10382;49.140;9.234;2023-04-24T14:16:08;14.50;99.90
20446;DHT22;10382;49.140;9.234;2023-04-24T14:18:35;14.40;99.90
20446;DHT22;10382;49.140;9.234;2023-04-24T14:21:02;14.30;99.90
20446;DHT22;10382;49.140;9.234;2023-04-24T14:23:30;14.40;99.90
20446;DHT22;10382;49.140;9.234;2023-04-24T14:25:57;14.40;99.90
20446;DHT22;10382;49.140;9.234;2023-04-24T14:28:24;14.40;99.90
20446;DHT22;10382;49.140;9.234;2023-04-24T14:30:52;14.50;99.90
20446;DHT22;10382;49.140;9.234;2023-04-24T14:33:19;14.50;99.90
20446;DHT22;10382;49.140;9.234;2023-04-24T14:35:46;14.30;99.90
20446;DHT22;10382;49.140;9.234;2023-04-24T14:38:13;14.40;99.90
20446;DHT22;10382;49.140;9.234;2023-04-24T14:40:42;14.40;99.90
20446;DHT22;10382;49.140;9.234;2023-04-24T14:43:09;14.30;99.90
20446;DHT22;10382;49.140;9.234;2023-04-24T14:45:36;14.20;99.90
20446;DHT22;10382;49.140;9.234;2023-04-24T14:48:04;14.40;99.90
20446;DHT22;10382;49.140;9.234;2023-04-24T14:50:30;14.40;99.90
20446;DHT22;10382;49.140;9.234;2023-04-24T14:52:57;14.30;99.90
20446;DHT22;10382;49.140;9.234;2023-04-24T14:55:24;14.40;99.90
20446;DHT22;10382;49.140;9.234;2023-04-24T14:57:53;14.40;99.90
20446;DHT22;10382;49.140;9.234;2023-04-24T15:00:21;14.40;99.90
20446;DHT22;10382;49.140;9.234;2023-04-24T15:02:48;14.50;99.90
20446;DHT22;10382;49.140;9.234;2023-04-24T15:05:15;14.50;99.90
20446;DHT22;10382;49.140;9.234;2023-04-24T15:07:42;14.70;99.90
20446;DHT22;10382;49.140;9.234;2023-04-24T15:10:10;14.90;99.90
20446;DHT22;10382;49.140;9.234;2023-04-24T15:12:37;15.50;99.90
20446;DHT22;10382;49.140;9.234;2023-04-24T15:15:08;15.80;99.90
20446;DHT22;10382;49.140;9.234;2023-04-24T15:17:35;16.10;99.90
20446;DHT22;10382;49.140;9.234;2023-04-24T15:20:03;16.50;99.90
20446;DHT22;10382;49.140;9.234;2023-04-24T15:22:32;16.40;99.90
20446;DHT22;10382;49.140;9.234;2023-04-24T15:24:58;16.70;99.90
20446;DHT22;10382;49.140;9.234;2023-04-24T15:27:26;16.60;99.90
20446;DHT22;10382;49.140;9.234;2023-04-24T15:29:54;16.40;99.90
20446;DHT22;10382;49.140;9.234;2023-04-24T15:32:22;16.10;99.90
20446;DHT22;10382;49.140;9.234;2023-04-24T15:34:49;15.70;99.90